Terminal Aerodrome Forecast
Issued by NWS Albany, NY

Home | Current Version | Previous Version | Text Only | Print | Product List | Glossary On
Versions: 1 2 3 4 5 6 7 8 9 10 11 12 13 14 15 16 17 18 19 20
000
FTUS41 KALY 262322
TAFALB
TAF
KALB 262322Z 2700/2724 20003KT P6SM FEW040 SCT100 BKN250
     FM270200 17008KT P6SM SCT015 BKN040
     FM271400 17012G17KT P6SM BKN050
     FM271800 18014G22KT P6SM -SHRA BKN045=

USA.gov is the U.S. government's official web portal to all federal, state and local government web resources and services.